Time;durP1;ratioP1;P1;durP2;ratioP2;P2;SDS_P1;SDS_P2;PMS_P1;PMS_P2;Temp;Humidity;BMP_temperature;BMP_pressure;BME280_temperature;BME280_humidity;BME280_pressure;Samples;Min_cycle;Max_cycle;Signal;HPM_P1;HPM_P2
2022/03/20 00:00:29;;;;;;;10.05;6.20;;;;;;;;;;5065366;28;20040;-93
2022/03/20 00:02:57;;;;;;;10.18;5.82;;;;;;;;;;5048187;28;20489;-96
2022/03/20 00:05:26;;;;;;;;;;;;;;;;;;5081973;28;20051;-95
2022/03/20 00:07:55;;;;;;;11.02;5.97;;;;;;;;;;5064823;28;19947;-95
2022/03/20 00:10:24;;;;;;;8.57;5.03;;;;;;;;;;5047337;28;20044;-94
2022/03/20 00:12:50;;;;;;;12.13;6.40;;;;;;;;;;5062763;28;20059;-94
2022/03/20 00:15:16;;;;;;;9.10;5.47;;;;;;;;;;5047362;28;20368;-94
2022/03/20 00:17:42;;;;;;;10.70;6.22;;;;;;;;;;5066230;28;20047;-94
2022/03/20 00:20:11;;;;;;;8.88;5.57;;;;;;;;;;5049751;28;20518;-96
2022/03/20 00:22:41;;;;;;;13.93;5.80;;;;;;;;;;5082284;28;20459;-94
2022/03/20 00:25:07;;;;;;;10.80;5.70;;;;;;;;;;5064492;28;20052;-93
2022/03/20 00:27:37;;;;;;;9.80;5.95;;;;;;;;;;5081711;28;20135;-93
2022/03/20 00:30:06;;;;;;;9.90;6.32;;;;;;;;;;5081476;28;20040;-95
2022/03/20 00:32:35;;;;;;;8.55;6.30;;;;;;;;;;5063879;28;20055;-94
2022/03/20 00:35:04;;;;;;;9.00;6.13;;;3.90;99.90;;;;;;5063539;28;20062;-93
2022/03/20 00:37:30;;;;;;;12.38;6.82;;;5.80;99.90;;;;;;5064511;28;20101;-95
2022/03/20 00:39:56;;;;;;;9.80;5.95;;;5.70;99.90;;;;;;5064817;28;20122;-94
2022/03/20 00:42:26;;;;;;;10.70;6.07;;;5.20;99.90;;;;;;5049160;28;20048;-93
2022/03/20 00:44:52;;;;;;;9.38;6.65;;;4.70;99.90;;;;;;5063071;28;20505;-94
2022/03/20 00:47:23;;;;;;;12.30;6.38;;;6.30;99.90;;;;;;5030572;28;20158;-95
2022/03/20 00:49:51;;;;;;;11.25;6.50;;;3.60;99.90;;;;;;5064214;28;20058;-94
2022/03/20 00:52:16;;;;;;;12.88;6.90;;;3.90;99.90;;;;;;5063832;28;20353;-93
2022/03/20 00:54:42;;;;;;;14.07;6.80;;;5.00;99.90;;;;;;5045433;28;20048;-95
2022/03/20 00:57:11;;;;;;;9.88;6.65;;;4.90;99.90;;;;;;5049384;28;20040;-94
2022/03/20 00:59:37;;;;;;;12.07;7.20;;;3.90;99.90;;;;;;5064920;28;20104;-96
2022/03/20 01:02:12;;;;;;;13.68;7.25;;;2.70;99.90;;;;;;5082322;28;20081;-91
2022/03/20 01:04:46;;;;;;;9.68;6.43;;;2.90;99.90;;;;;;5064832;28;20105;-96
2022/03/20 01:07:12;;;;;;;12.73;6.05;;;3.90;99.90;;;;;;5063645;28;20052;-93
2022/03/20 01:09:48;;;;;;;11.32;6.07;;;4.50;99.90;;;;;;5064944;28;20085;-96
2022/03/20 01:12:14;;;;;;;10.20;6.72;;;4.70;99.90;;;;;;5048091;28;20048;-94
2022/03/20 01:14:42;;;;;;;12.07;6.55;;;6.00;99.90;;;;;;5063640;28;20071;-94
2022/03/20 01:17:08;;;;;;;8.90;5.85;;;6.10;99.90;;;;;;5047464;28;20548;-96
2022/03/20 01:19:54;;;;;;;11.90;5.85;;;5.40;99.90;;;;;;5063636;28;20139;-96
2022/03/20 01:22:20;;;;;;;12.35;6.75;;;4.30;99.90;;;;;;5063175;28;20153;-94
2022/03/20 01:24:46;;;;;;;9.10;6.57;;;5.90;99.90;;;;;;5063433;28;20514;-94
2022/03/20 01:27:12;;;;;;;9.50;6.32;;;5.60;99.90;;;;;;5046496;28;20052;-96
2022/03/20 01:29:41;;;;;;;12.45;5.95;;;5.10;99.90;;;;;;5062578;28;20121;-94
2022/03/20 01:32:08;;;;;;;11.95;7.55;;;5.40;99.90;;;;;;5046060;28;20479;-93
2022/03/20 01:34:37;;;;;;;11.85;6.05;;;3.40;99.90;;;;;;5030084;28;20048;-93
2022/03/20 01:37:03;;;;;;;9.45;6.80;;;4.90;99.90;;;;;;5064343;28;20044;-95
2022/03/20 01:39:34;;;;;;;13.85;6.55;;;3.70;99.90;;;;;;5062877;28;20040;-94
2022/03/20 01:42:00;;;;;;;10.15;6.38;;;5.70;99.90;;;;;;5029248;28;20063;-89
2022/03/20 01:44:32;;;;;;;12.52;6.55;;;6.00;99.90;;;;;;5028619;28;20589;-93
2022/03/20 01:46:58;;;;;;;11.15;6.70;;;2.00;99.90;;;;;;5045844;28;20552;-95
2022/03/20 01:49:27;;;;;;;11.57;6.82;;;5.10;99.90;;;;;;5061997;28;20135;-94
2022/03/20 01:52:11;;;;;;;10.88;6.82;;;2.20;99.90;;;;;;5046194;28;20044;-94
2022/03/20 01:54:48;;;;;;;12.52;6.72;;;5.60;99.90;;;;;;5062267;28;20056;-93
2022/03/20 01:57:26;;;;;;;9.98;6.38;;;4.30;99.90;;;;;;5056398;28;20047;-94
2022/03/20 01:59:52;;;;;;;10.45;6.90;;;5.30;99.90;;;;;;5064201;28;20036;-93
2022/03/20 02:02:22;;;;;;;14.45;6.75;;;5.80;99.90;;;;;;5061819;28;20094;-93
2022/03/20 02:04:49;;;;;;;14.90;8.15;;;5.50;99.90;;;;;;5046658;28;20051;-92
2022/03/20 02:07:15;;;;;;;14.02;8.02;;;3.20;99.90;;;;;;5062994;28;20193;-94
2022/03/20 02:09:43;;;;;;;12.15;6.80;;;1.90;99.90;;;;;;5046044;28;20051;-95
2022/03/20 02:12:11;;;;;;;13.57;6.80;;;5.40;99.90;;;;;;5045770;28;20048;-92
2022/03/20 02:14:40;;;;;;;18.23;8.00;;;2.80;99.90;;;;;;5064029;28;20055;-93
2022/03/20 02:17:07;;;;;;;13.40;7.15;;;5.30;99.90;;;;;;5048041;28;20449;-94
2022/03/20 02:19:38;;;;;;;12.40;7.38;;;5.40;99.90;;;;;;5064895;28;20051;-94
2022/03/20 02:22:04;;;;;;;10.93;7.72;;;3.40;99.90;;;;;;5062024;28;20036;-93
2022/03/20 02:24:42;;;;;;;12.35;6.72;;;5.00;99.90;;;;;;5061594;28;20083;-93
2022/03/20 02:27:33;;;;;;;15.60;8.07;;;2.90;99.90;;;;;;5061557;28;20101;-92
2022/03/20 02:30:02;;;;;;;13.02;6.93;;;2.90;99.90;;;;;;5061768;28;20487;-94
2022/03/20 02:32:30;;;;;;;15.13;7.60;;;5.20;99.90;;;;;;5063616;28;20055;-93
2022/03/20 02:35:13;;;;;;;13.77;7.78;;;4.00;99.90;;;;;;5062755;28;20055;-94
2022/03/20 02:37:57;;;;;;;11.50;7.10;;;3.20;99.90;;;;;;5030753;28;20108;-96
2022/03/20 02:40:24;;;;;;;13.38;7.85;;;3.20;99.90;;;;;;5023144;28;20114;-94
2022/03/20 02:42:54;;;;;;;13.73;7.03;;;5.20;99.90;;;;;;5022062;28;20188;-94
2022/03/20 02:45:22;;;;;;;12.10;7.68;;;4.00;99.90;;;;;;5021258;28;20164;-92
2022/03/20 02:47:50;;;;;;;12.05;7.38;;;2.80;99.90;;;;;;5020111;28;20053;-94
2022/03/20 02:50:19;;;;;;;13.00;7.75;;;3.70;99.90;;;;;;5021901;28;20128;-95
2022/03/20 02:52:49;;;;;;;14.48;7.55;;;4.40;99.90;;;;;;5021713;28;20052;-91
2022/03/20 02:55:23;;;;;;;10.77;7.32;;;4.00;99.90;;;;;;5019914;28;20171;-95
2022/03/20 02:57:51;;;;;;;12.60;7.70;;;2.60;99.90;;;;;;5021300;28;20049;-96
2022/03/20 03:00:28;;;;;;;13.55;7.57;;;4.90;99.90;;;;;;5021993;28;20037;-92
2022/03/20 03:03:01;;;;;;;13.68;8.15;;;4.00;99.90;;;;;;5021155;28;20068;-94
2022/03/20 03:05:30;;;;;;;16.15;8.20;;;2.60;99.90;;;;;;5022060;28;20073;-94
2022/03/20 03:11:01;;;;;;;12.93;8.63;;;2.60;99.90;;;;;;5037366;28;20048;-95
2022/03/20 03:13:38;;;;;;;14.50;8.15;;;4.50;99.90;;;;;;5052642;28;21008;-93
2022/03/20 03:16:06;;;;;;;14.98;8.57;;;2.80;99.90;;;;;;5051652;28;20062;-95
2022/03/20 03:18:32;;;;;;;13.55;8.45;;;2.50;99.90;;;;;;5080028;28;20051;-96
2022/03/20 03:21:00;;;;;;;15.05;8.57;;;4.50;99.90;;;;;;5061066;28;20039;-95
2022/03/20 03:23:26;;;;;;;16.48;8.65;;;4.90;99.90;;;;;;5063265;28;20507;-94
2022/03/20 03:25:53;;;;;;;12.90;8.75;;;3.40;99.90;;;;;;5062923;28;20446;-94
2022/03/20 03:28:19;;;;;;;15.57;9.90;;;2.40;99.90;;;;;;5062447;28;20071;-95
2022/03/20 03:30:48;;;;;;;14.43;8.68;;;3.60;99.90;;;;;;5067569;28;20479;-95
2022/03/20 03:33:17;;;;;;;14.52;9.23;;;2.70;99.90;;;;;;5066692;28;20036;-95
2022/03/20 03:35:44;;;;;;;13.20;8.95;;;4.50;99.90;;;;;;5050766;28;20131;-96
2022/03/20 03:38:17;;;;;;;15.45;9.02;;;4.40;99.90;;;;;;5066627;28;20138;-94
2022/03/20 03:40:48;;;;;;;16.20;9.00;;;2.30;99.90;;;;;;5050338;28;20043;-95
2022/03/20 03:43:17;;;;;;;17.20;9.25;;;1.30;99.90;;;;;;5065499;28;20047;-96
2022/03/20 03:45:45;;;;;;;17.38;9.82;;;2.30;99.90;;;;;;5064952;28;20087;-96
2022/03/20 03:48:12;;;;;;;15.45;9.40;;;2.20;99.90;;;;;;5065441;28;20074;-95
2022/03/20 03:50:43;;;;;;;23.33;10.60;;;4.30;99.90;;;;;;5082408;28;20050;-92
2022/03/20 03:53:10;;;;;;;18.27;10.32;;;4.90;99.90;;;;;;5066663;28;20051;-95
2022/03/20 03:55:37;;;;;;;19.98;10.88;;;4.80;99.90;;;;;;5064427;28;20044;-94
2022/03/20 03:58:05;;;;;;;16.30;10.45;;;4.50;99.90;;;;;;5062944;28;20048;-93
2022/03/20 04:00:32;;;;;;;18.38;11.15;;;2.20;99.90;;;;;;5048493;28;20100;-93
2022/03/20 04:03:01;;;;;;;16.45;10.95;;;4.40;99.90;;;;;;5066603;28;20040;-93
2022/03/20 04:05:30;;;;;;;20.15;11.25;;;4.40;99.90;;;;;;5050113;28;20550;-93
2022/03/20 04:07:56;;;;;;;15.80;11.40;;;2.50;99.90;;;;;;5063925;28;20542;-93
2022/03/20 04:10:25;;;;;;;16.50;10.93;;;2.50;99.90;;;;;;5064095;28;20057;-95
2022/03/20 04:12:51;;;;;;;17.90;10.75;;;1.10;99.90;;;;;;5064408;28;20044;-95
2022/03/20 04:15:23;;;;;;;17.52;11.20;;;3.00;99.90;;;;;;5063967;28;20068;-94
2022/03/20 04:17:52;;;;;;;16.88;11.55;;;3.40;99.90;;;;;;5065180;28;20044;-96
2022/03/20 04:20:18;;;;;;;19.15;11.15;;;4.40;99.90;;;;;;5064651;28;20048;-91
2022/03/20 04:25:29;;;;;;;17.67;11.13;;;4.70;99.90;;;;;;5081072;28;20255;-92
2022/03/20 04:27:56;;;;;;;19.35;11.55;;;2.70;99.90;;;;;;5064107;28;20768;-93
2022/03/20 04:30:26;;;;;;;16.27;10.73;;;4.60;99.90;;;;;;5063409;28;20094;-94
2022/03/20 04:32:53;;;;;;;18.35;12.05;;;4.40;99.90;;;;;;5063549;28;20051;-93
2022/03/20 04:35:22;;;;;;;19.48;12.60;;;2.20;99.90;;;;;;5063212;28;20052;-91
2022/03/20 04:37:51;;;;;;;19.80;12.07;;;4.40;99.90;;;;;;5064311;28;20050;-92
2022/03/20 04:40:17;;;;;;;17.17;11.80;;;4.90;99.90;;;;;;5063664;28;20084;-93
2022/03/20 04:42:46;;;;;;;16.80;11.93;;;2.50;99.90;;;;;;5045889;28;20054;-92
2022/03/20 04:45:12;;;;;;;20.02;11.98;;;4.00;99.90;;;;;;5029668;28;20079;-95
2022/03/20 04:58:40;;;;;;;23.02;12.68;;;1.50;99.90;;;;;;5079846;28;20067;-96
2022/03/20 05:01:08;;;;;;;18.30;12.38;;;0.20;99.90;;;;;;5044958;28;20490;-91
2022/03/20 05:03:36;;;;;;;21.08;13.13;;;4.10;99.90;;;;;;5061205;28;20047;-94
2022/03/20 05:06:08;;;;;;;21.05;12.43;;;3.80;99.90;;;;;;5048406;28;20040;-93
2022/03/20 05:08:35;;;;;;;18.52;12.30;;;2.90;99.90;;;;;;5063751;28;20044;-95
2022/03/20 05:13:49;;;;;;;19.58;13.27;;;4.10;99.90;;;;;;5076328;28;20051;-93
2022/03/20 05:16:17;;;;;;;20.90;13.65;;;3.40;99.90;;;;;;5059083;28;20061;-94
2022/03/20 05:18:53;;;;;;;21.48;14.05;;;2.20;99.90;;;;;;5060602;28;20147;-93
2022/03/20 05:21:19;;;;;;;19.48;13.40;;;4.30;99.90;;;;;;5059532;28;20476;-95
2022/03/20 05:23:45;;;;;;;23.88;13.75;;;3.90;99.90;;;;;;5059529;28;20040;-91
2022/03/20 05:26:15;;;;;;;20.30;13.63;;;3.30;99.90;;;;;;5026779;28;20189;-91
2022/03/20 05:28:46;;;;;;;19.90;13.48;;;4.40;99.90;;;;;;5045328;28;20500;-92
2022/03/20 05:31:12;;;;;;;25.70;14.25;;;4.20;99.90;;;;;;5060425;28;20062;-91
2022/03/20 05:33:38;;;;;;;22.05;14.55;;;4.30;99.90;;;;;;5043167;28;20044;-94
2022/03/20 05:36:04;;;;;;;19.95;13.57;;;2.20;99.90;;;;;;5059273;28;20052;-94
2022/03/20 05:38:31;;;;;;;19.83;14.15;;;2.10;99.90;;;;;;5057850;28;20048;-94
2022/03/20 05:41:45;;;;;;;21.65;14.10;;;4.90;99.90;;;;;;5075451;28;20190;-93
2022/03/20 05:43:46;;;;;;;26.55;14.93;;;2.40;99.90;;;;;;5075650;28;20052;-92
2022/03/20 05:46:12;;;;;;;25.17;14.40;;;4.10;99.90;;;;;;5058565;28;20048;-93
2022/03/20 05:48:37;;;;;;;24.27;14.35;;;3.60;99.90;;;;;;5059172;28;20028;-94
2022/03/20 05:51:03;;;;;;;20.27;14.65;;;3.90;99.90;;;;;;5059633;28;20407;-95
2022/03/20 05:53:29;;;;;;;21.45;14.60;;;3.60;99.90;;;;;;5041258;28;20045;-96
2022/03/20 05:58:41;;;;;;;19.60;13.98;;;2.30;99.90;;;;;;5046463;28;20106;-94
2022/03/20 06:01:08;;;;;;;24.35;15.23;;;4.30;99.90;;;;;;5025900;28;20076;-96
2022/03/20 06:03:35;;;;;;;25.08;14.95;;;2.60;99.90;;;;;;5059445;28;20407;-95
2022/03/20 06:06:00;;;;;;;24.25;13.70;;;3.60;99.90;;;;;;5061922;28;20045;-93
2022/03/20 06:08:29;;;;;;;24.95;15.48;;;2.00;99.90;;;;;;5044428;28;20048;-92
2022/03/20 06:10:57;;;;;;;22.65;14.88;;;2.60;99.90;;;;;;5060087;28;20068;-94
2022/03/20 06:13:33;;;;;;;23.80;15.15;;;2.00;99.90;;;;;;5045077;28;20056;-93
2022/03/20 06:16:01;;;;;;;24.33;15.55;;;2.70;99.90;;;;;;5059983;28;20051;-94
2022/03/20 06:18:27;;;;;;;23.48;16.27;;;3.90;99.90;;;;;;5061375;28;20056;-92
2022/03/20 06:20:54;;;;;;;22.90;15.25;;;4.10;99.90;;;;;;5059679;28;20048;-90
2022/03/20 06:23:19;;;;;;;23.25;15.20;;;4.60;99.90;;;;;;5059927;28;20052;-91
2022/03/20 06:25:51;;;;;;;25.15;15.88;;;2.00;99.90;;;;;;5058911;28;20070;-92
2022/03/20 06:28:17;;;;;;;21.98;14.57;;;2.40;99.90;;;;;;5042305;28;20135;-93
2022/03/20 06:30:43;;;;;;;23.17;15.32;;;4.50;99.90;;;;;;5027468;28;20068;-92
2022/03/20 06:33:12;;;;;;;24.15;16.23;;;2.30;99.90;;;;;;5044393;28;20064;-94
2022/03/20 06:35:37;;;;;;;28.23;16.45;;;4.70;99.90;;;;;;5043783;28;20472;-94
2022/03/20 06:38:03;;;;;;;25.73;15.75;;;3.60;99.90;;;;;;5026271;28;20550;-91
2022/03/20 06:40:29;;;;;;;24.88;16.40;;;4.90;99.90;;;;;;5059558;28;20080;-93
2022/03/20 06:42:55;;;;;;;25.77;15.98;;;4.80;99.90;;;;;;5042993;28;20055;-94
2022/03/20 06:45:28;;;;;;;25.23;15.75;;;5.10;99.90;;;;;;5043805;28;20041;-95
2022/03/20 06:47:53;;;;;;;22.90;15.20;;;5.00;99.90;;;;;;5060512;28;20048;-93
2022/03/20 06:50:22;;;;;;;21.38;14.45;;;4.90;99.90;;;;;;5076525;28;20094;-94
2022/03/20 06:52:47;;;;;;;26.05;15.20;;;5.50;99.90;;;;;;5043550;28;20428;-96
2022/03/20 06:55:16;;;;;;;22.02;14.18;;;1.30;99.90;;;;;;5060103;28;20154;-93
2022/03/20 06:57:48;;;;;;;23.15;16.08;;;3.00;99.90;;;;;;5061256;28;20044;-94
2022/03/20 07:00:18;;;;;;;23.45;15.60;;;1.10;99.90;;;;;;5059097;28;20040;-96
2022/03/20 07:02:44;;;;;;;21.90;15.45;;;2.90;99.90;;;;;;5042213;28;20059;-94
2022/03/20 07:05:10;;;;;;;21.48;15.50;;;5.50;99.90;;;;;;5062022;28;20056;-94
2022/03/20 07:07:36;;;;;;;25.17;15.98;;;5.60;99.90;;;;;;5063090;28;20044;-95
2022/03/20 07:10:03;;;;;;;24.38;16.27;;;5.70;99.90;;;;;;5064627;28;20043;-93
2022/03/20 07:12:29;;;;;;;23.73;15.57;;;3.70;99.90;;;;;;5067875;28;20081;-93
2022/03/20 07:14:57;;;;;;;24.60;14.90;;;3.40;99.90;;;;;;5068583;28;20048;-90
2022/03/20 07:17:24;;;;;;;25.65;16.63;;;5.70;99.90;;;;;;5049890;28;20044;-93
2022/03/20 07:19:50;;;;;;;23.20;15.63;;;6.10;99.90;;;;;;5068568;28;20048;-94
2022/03/20 07:22:16;;;;;;;21.67;15.90;;;5.60;99.90;;;;;;5068463;28;20052;-94
2022/03/20 07:24:46;;;;;;;24.75;15.18;;;6.10;99.90;;;;;;5067692;28;20047;-94
2022/03/20 07:29:57;;;;;;;24.98;14.15;;;5.00;99.90;;;;;;5085546;28;20518;-94
2022/03/20 07:32:24;;;;;;;20.95;15.90;;;4.80;99.90;;;;;;5069717;28;20043;-92
2022/03/20 07:34:52;;;;;;;22.65;14.85;;;5.00;99.90;;;;;;5070711;28;20044;-91
2022/03/20 07:37:18;;;;;;;20.73;15.10;;;4.00;99.90;;;;;;5071862;28;20054;-93
2022/03/20 07:39:51;;;;;;;23.83;16.00;;;4.10;99.90;;;;;;5056433;28;20048;-93
2022/03/20 07:42:18;;;;;;;24.38;16.33;;;6.60;99.90;;;;;;5070407;28;20044;-95
2022/03/20 07:44:46;;;;;;;24.45;14.82;;;4.20;99.90;;;;;;5083559;28;20116;-93
2022/03/20 07:47:20;;;;;;;22.83;15.63;;;4.50;99.90;;;;;;5050379;28;20559;-90
2022/03/20 07:49:47;;;;;;;22.38;15.68;;;6.80;99.90;;;;;;5068122;28;20044;-91
2022/03/20 07:52:15;;;;;;;24.58;16.38;;;6.70;99.90;;;;;;5083389;28;20044;-94
2022/03/20 07:54:45;;;;;;;20.48;15.13;;;3.00;99.90;;;;;;5071514;28;20024;-91
2022/03/20 07:57:14;;;;;;;24.70;16.38;;;3.00;99.90;;;;;;5098872;28;20407;-91
2022/03/20 07:59:42;;;;;;;25.45;16.23;;;5.00;99.90;;;;;;5066246;28;20046;-94
2022/03/20 08:02:09;;;;;;;22.85;15.45;;;7.60;99.90;;;;;;5032461;28;20040;-91
2022/03/20 08:04:37;;;;;;;22.02;15.27;;;6.80;99.90;;;;;;5063642;28;20134;-91
2022/03/20 08:07:04;;;;;;;24.58;15.80;;;5.30;99.90;;;;;;5047472;28;20051;-95
2022/03/20 08:09:33;;;;;;;20.55;14.32;;;5.30;99.90;;;;;;5065717;28;20143;-93
2022/03/20 08:12:01;;;;;;;23.65;16.38;;;5.40;99.90;;;;;;5064874;28;20059;-92
2022/03/20 08:14:28;;;;;;;22.55;15.32;;;7.60;99.90;;;;;;5065434;28;20143;-92
2022/03/20 08:16:56;;;;;;;22.40;15.77;;;7.90;99.90;;;;;;5066366;28;20082;-93
2022/03/20 08:19:40;;;;;;;25.20;15.45;;;4.20;99.90;;;;;;5071705;28;20135;-91
2022/03/20 08:22:06;;;;;;;22.80;15.73;;;5.70;99.90;;;;;;5048355;28;20050;-94
2022/03/20 08:24:32;;;;;;;23.77;15.70;;;5.70;99.90;;;;;;5064817;28;20044;-95
2022/03/20 08:27:02;;;;;;;23.42;16.98;;;7.50;99.90;;;;;;5047935;28;20070;-94
2022/03/20 08:29:35;;;;;;;23.88;16.35;;;5.80;99.90;;;;;;5065377;28;20086;-91
2022/03/20 08:32:03;;;;;;;23.88;17.08;;;5.80;99.90;;;;;;5050497;28;20044;-95
2022/03/20 08:34:31;;;;;;;22.77;16.20;;;5.80;99.90;;;;;;5081972;28;20054;-94
2022/03/20 08:36:57;;;;;;;25.73;17.00;;;6.10;99.90;;;;;;5065187;28;20055;-93
2022/03/20 08:39:26;;;;;;;23.83;16.77;;;6.00;99.90;;;;;;5063974;28;20367;-93
2022/03/20 08:41:52;;;;;;;28.38;17.35;;;5.90;99.90;;;;;;5064005;28;20040;-92
2022/03/20 08:44:18;;;;;;;23.40;17.10;;;6.10;99.90;;;;;;5048082;28;20128;-93
2022/03/20 08:46:50;;;;;;;25.20;16.05;;;8.60;99.90;;;;;;5081811;28;20048;-94
2022/03/20 08:49:15;;;;;;;24.50;16.58;;;6.40;99.90;;;;;;5064067;28;20131;-89
2022/03/20 08:51:43;;;;;;;25.38;16.67;;;6.40;99.90;;;;;;5062294;28;20149;-91
2022/03/20 08:54:14;;;;;;;22.88;16.13;;;6.40;99.90;;;;;;5064981;28;20150;-91
2022/03/20 08:56:40;;;;;;;23.20;16.48;;;6.70;99.90;;;;;;5080905;28;20083;-92
2022/03/20 08:59:08;;;;;;;26.88;16.38;;;6.90;99.90;;;;;;5063912;28;20043;-93
2022/03/20 09:01:37;;;;;;;27.52;17.77;;;6.70;99.90;;;;;;5063891;28;20395;-94
2022/03/20 09:04:03;;;;;;;25.38;17.27;;;7.00;99.90;;;;;;5047682;28;20040;-94
2022/03/20 09:06:29;;;;;;;23.73;15.95;;;7.70;99.90;;;;;;5064671;28;20047;-91
2022/03/20 09:08:55;;;;;;;24.88;16.88;;;7.20;99.90;;;;;;5062876;28;20138;-91
2022/03/20 09:11:21;;;;;;;24.65;15.90;;;5.90;99.90;;;;;;5060267;28;20064;-91
2022/03/20 09:13:58;;;;;;;23.23;16.90;;;7.20;99.90;;;;;;5060927;28;20052;-90
2022/03/20 09:19:14;;;;;;;25.23;17.67;;;7.50;99.90;;;;;;5076842;28;20052;-92
2022/03/20 09:21:44;;;;;;;28.42;16.77;;;6.90;99.90;;;;;;5043423;28;20121;-93
2022/03/20 09:24:13;;;;;;;27.23;17.42;;;9.40;99.90;;;;;;5060627;28;20055;-90
2022/03/20 09:26:39;;;;;;;25.02;17.40;;;10.00;99.90;;;;;;5076084;28;20127;-91
2022/03/20 09:29:09;;;;;;;28.25;17.70;;;7.90;99.90;;;;;;5042503;28;20178;-90
2022/03/20 09:31:35;;;;;;;26.13;18.27;;;7.70;99.90;;;;;;5058864;28;20078;-94
2022/03/20 09:34:01;;;;;;;25.15;18.13;;;9.70;99.90;;;;;;5042727;28;20052;-94
2022/03/20 09:36:29;;;;;;;24.08;16.60;;;8.00;99.90;;;;;;5042358;28;20049;-94
2022/03/20 09:38:55;;;;;;;25.38;17.80;;;7.70;99.90;;;;;;5058973;28;20340;-91
2022/03/20 09:41:29;;;;;;;28.90;18.98;;;7.90;99.90;;;;;;5026936;28;20052;-90
2022/03/20 09:44:00;;;;;;;24.80;16.35;;;7.50;99.90;;;;;;5075492;28;20064;-92
2022/03/20 09:46:27;;;;;;;26.05;18.35;;;8.20;99.90;;;;;;5026572;28;20063;-91
2022/03/20 09:48:56;;;;;;;24.67;18.23;;;8.40;99.90;;;;;;5059331;28;20471;-91
2022/03/20 09:51:25;;;;;;;29.58;17.92;;;8.30;99.90;;;;;;5059694;28;20047;-92
2022/03/20 09:53:57;;;;;;;28.50;18.15;;;8.60;99.90;;;;;;5060222;28;20110;-93
2022/03/20 09:56:25;;;;;;;24.83;17.38;;;8.70;99.90;;;;;;5058538;28;20102;-91
2022/03/20 09:58:50;;;;;;;27.50;18.88;;;8.30;99.70;;;;;;5043043;28;20132;-93
2022/03/20 10:01:20;;;;;;;25.77;18.27;;;8.70;99.90;;;;;;5042738;28;20082;-89
2022/03/20 10:03:46;;;;;;;23.08;16.92;;;8.70;99.80;;;;;;5059543;28;20100;-90
2022/03/20 10:06:17;;;;;;;26.52;18.38;;;8.70;99.40;;;;;;5059108;28;20052;-92
2022/03/20 10:08:56;;;;;;;25.85;19.25;;;10.40;98.40;;;;;;5058828;28;20052;-91
2022/03/20 10:11:22;;;;;;;26.30;17.95;;;8.80;98.00;;;;;;5075179;28;20110;-93
2022/03/20 10:14:16;;;;;;;29.13;19.27;;;8.80;99.00;;;;;;5075425;28;20052;-92
2022/03/20 10:16:55;;;;;;;23.40;16.73;;;9.00;97.60;;;;;;5059344;28;20044;-90
2022/03/20 10:19:32;;;;;;;26.20;17.75;;;9.10;97.30;;;;;;5043348;28;20080;-93
2022/03/20 10:22:02;;;;;;;26.55;17.42;;;11.40;97.10;;;;;;5076152;28;20045;-93
2022/03/20 10:24:37;;;;;;;25.55;19.30;;;9.20;95.90;;;;;;5059457;28;20114;-92
2022/03/20 10:27:07;;;;;;;29.20;18.38;;;8.60;97.10;;;;;;5059079;28;20513;-90
2022/03/20 10:29:36;;;;;;;29.17;18.65;;;11.30;97.20;;;;;;5075294;28;20064;-92
2022/03/20 10:32:11;;;;;;;25.30;19.40;;;9.40;96.70;;;;;;5057696;28;20140;-90
2022/03/20 10:34:52;;;;;;;28.50;19.98;;;9.50;95.90;;;;;;5036958;28;20052;-92
2022/03/20 10:37:19;;;;;;;;;;;10.00;95.80;;;;;;5058688;28;20045;-90
2022/03/20 10:40:08;;;;;;;27.33;18.70;;;9.60;94.70;;;;;;5065239;28;19919;-90
2022/03/20 10:42:34;;;;;;;26.10;19.83;;;8.40;94.80;;;;;;5065344;28;20049;-93
2022/03/20 10:45:06;;;;;;;27.42;20.05;;;9.60;95.40;;;;;;5065699;28;20029;-92
2022/03/20 10:47:32;;;;;;;27.48;19.98;;;9.80;95.10;;;;;;5080944;28;20073;-91
2022/03/20 10:50:09;;;;;;;28.25;17.33;;;10.10;95.80;;;;;;5062405;28;20043;-85
2022/03/20 10:52:42;;;;;;;31.95;19.85;;;9.70;93.40;;;;;;5078022;28;20095;-90
2022/03/20 10:55:17;;;;;;;28.75;20.50;;;9.90;95.00;;;;;;5061147;28;20133;-89
2022/03/20 10:57:43;;;;;;;31.13;20.60;;;10.60;94.20;;;;;;5078346;28;20044;-92
2022/03/20 11:00:18;;;;;;;28.98;20.20;;;10.00;94.30;;;;;;5061245;28;20094;-90
2022/03/20 11:02:47;;;;;;;30.05;18.90;;;10.00;93.40;;;;;;5062418;28;20098;-93
2022/03/20 11:05:13;;;;;;;28.90;20.08;;;10.10;95.20;;;;;;5047547;28;20490;-92
2022/03/20 11:07:46;;;;;;;28.15;19.88;;;10.50;99.90;;;;;;5062694;28;20040;-91
2022/03/20 11:10:17;;;;;;;26.85;19.88;;;10.30;99.90;;;;;;5064127;28;20633;-92
2022/03/20 11:12:43;;;;;;;;;;;10.30;99.90;;;;;;5062534;28;20046;-91
2022/03/20 11:15:12;;;;;;;27.92;19.30;;;10.40;99.90;;;;;;5049895;28;19924;-91
2022/03/20 11:17:48;;;;;;;27.38;19.58;;;10.60;99.90;;;;;;5049581;28;20051;-90
2022/03/20 11:20:15;;;;;;;26.40;19.73;;;10.70;99.90;;;;;;5065410;28;20043;-91
2022/03/20 11:22:50;;;;;;;28.17;19.50;;;10.70;99.90;;;;;;5065181;28;20062;-93
2022/03/20 11:25:23;;;;;;;30.88;20.33;;;;;;;;;;5065194;28;20039;-94
2022/03/20 11:28:01;;;;;;;28.58;20.92;;;11.10;99.90;;;;;;5064282;28;20122;-91
2022/03/20 11:30:28;;;;;;;29.55;20.05;;;;;;;;;;5065694;28;20051;-89
2022/03/20 11:33:02;;;;;;;28.45;19.58;;;11.30;99.90;;;;;;5065571;28;20131;-92
2022/03/20 11:35:30;;;;;;;30.48;18.33;;;11.20;99.90;;;;;;5048769;28;20433;-92
2022/03/20 11:38:14;;;;;;;28.80;20.67;;;11.20;99.90;;;;;;5065732;28;20056;-94
2022/03/20 11:41:20;;;;;;;30.40;20.42;;;11.10;99.10;;;;;;5049858;28;20107;-94
2022/03/20 11:44:11;;;;;;;26.42;19.00;;;9.20;98.10;;;;;;5065760;28;20472;-90
2022/03/20 11:46:37;;;;;;;28.45;20.45;;;;;;;;;;5082530;28;20048;-93
2022/03/20 11:49:19;;;;;;;26.23;19.33;;;11.40;94.20;;;;;;5082320;28;20141;-90
2022/03/20 11:52:10;;;;;;;26.30;20.33;;;9.80;93.10;;;;;;5082440;28;20043;-92
2022/03/20 11:54:42;;;;;;;24.90;19.67;;;11.70;93.30;;;;;;5081941;28;20109;-94
2022/03/20 11:57:29;;;;;;;29.73;19.77;;;11.90;94.50;;;;;;5065657;28;20055;-94
2022/03/20 12:00:18;;;;;;;26.88;20.60;;;12.50;93.60;;;;;;5064859;28;20433;-94
2022/03/20 12:03:15;;;;;;;25.48;19.75;;;12.30;94.10;;;;;;5082577;28;20052;-94
2022/03/20 12:05:41;;;;;;;31.65;20.10;;;12.40;91.50;;;;;;5065773;28;20052;-91
2022/03/20 12:08:23;;;;;;;27.42;19.83;;;;;;;;;;5065988;28;20505;-92
2022/03/20 12:11:26;;;;;;;24.20;18.70;;;12.60;90.30;;;;;;5079009;28;20140;-90
2022/03/20 12:14:24;;;;;;;26.40;19.65;;;12.40;87.80;;;;;;5079111;28;20141;-87
2022/03/20 12:16:51;;;;;;;28.23;20.65;;;12.40;88.90;;;;;;5060886;28;20075;-92
2022/03/20 12:19:41;;;;;;;26.73;20.65;;;14.20;90.10;;;;;;5063015;28;20514;-92
2022/03/20 12:22:15;;;;;;;28.00;19.20;;;12.30;85.70;;;;;;5061173;28;20137;-91
2022/03/20 12:24:53;;;;;;;31.90;20.40;;;12.40;88.30;;;;;;5060632;28;20049;-90
2022/03/20 12:27:24;;;;;;;25.48;19.42;;;12.50;86.80;;;;;;5076613;28;20055;-91
2022/03/20 12:30:07;;;;;;;27.90;20.00;;;13.40;86.80;;;;;;5077137;28;20036;-89
2022/03/20 12:33:01;;;;;;;30.50;20.92;;;12.70;86.20;;;;;;5060416;28;20132;-92
2022/03/20 12:35:42;;;;;;;26.55;19.50;;;13.40;87.30;;;;;;5074444;28;20072;-91
2022/03/20 12:38:42;;;;;;;27.80;20.08;;;13.20;83.80;;;;;;5061491;28;20040;-88
2022/03/20 12:41:19;;;;;;;27.85;20.27;;;13.40;80.90;;;;;;5077750;28;20040;-92
2022/03/20 12:44:00;;;;;;;27.15;19.85;;;13.40;83.70;;;;;;5061276;28;20496;-91
2022/03/20 12:46:26;;;;;;;25.95;20.10;;;13.90;79.40;;;;;;5078026;28;20045;-90
2022/03/20 12:48:54;;;;;;;25.77;20.20;;;13.40;81.90;;;;;;5045046;28;20036;-91
2022/03/20 12:51:33;;;;;;;25.65;20.05;;;14.70;82.80;;;;;;5062071;28;20049;-92
2022/03/20 12:54:04;;;;;;;29.45;19.67;;;13.40;77.90;;;;;;5079474;28;20055;-91
2022/03/20 12:56:31;;;;;;;26.92;20.48;;;13.50;78.20;;;;;;5062208;28;20041;-92
2022/03/20 12:58:57;;;;;;;28.65;19.63;;;13.80;80.60;;;;;;5061915;28;20052;-92
2022/03/20 13:01:25;;;;;;;25.90;20.25;;;13.70;82.70;;;;;;5059562;28;20024;-89
2022/03/20 13:03:51;;;;;;;25.30;20.65;;;13.60;80.40;;;;;;5042799;28;20068;-90
2022/03/20 13:06:17;;;;;;;28.60;19.70;;;13.10;81.30;;;;;;5060205;28;20059;-86
2022/03/20 13:08:46;;;;;;;26.63;20.25;;;12.70;78.70;;;;;;5077401;28;20491;-95
2022/03/20 13:14:12;;;;;;;28.27;20.00;;;12.60;79.10;;;;;;5076563;28;20388;-91
2022/03/20 13:17:06;;;;;;;26.63;19.98;;;13.20;79.30;;;;;;5076776;28;20506;-92
2022/03/20 13:19:37;;;;;;;27.30;19.50;;;13.30;78.30;;;;;;5046252;28;20048;-90
2022/03/20 13:22:08;;;;;;;26.00;21.27;;;13.60;79.00;;;;;;5060434;28;20049;-87
2022/03/20 13:24:49;;;;;;;27.27;20.48;;;13.40;78.70;;;;;;5060059;28;20084;-92
2022/03/20 13:27:18;;;;;;;25.25;20.48;;;14.10;77.20;;;;;;5077027;28;20054;-89
2022/03/20 13:29:51;;;;;;;24.48;19.75;;;13.20;81.00;;;;;;5041189;28;20044;-91
2022/03/20 13:32:22;;;;;;;25.33;19.75;;;13.20;77.30;;;;;;5074913;28;20053;-91